sensor_id;sensor_type;location;lat;lon;timestamp;pressure;altitude;pressure_sealevel;temperature;humidity
46392;BME280;32098;49.448;7.904;2022-07-23T00:01:25;98145.28;;;19.79;68.30
46392;BME280;32098;49.448;7.904;2022-07-23T00:03:53;98145.03;;;20.00;67.36
46392;BME280;32098;49.448;7.904;2022-07-23T00:06:22;98142.31;;;20.18;68.00
46392;BME280;32098;49.448;7.904;2022-07-23T00:08:50;98129.69;;;20.27;68.60
46392;BME280;32098;49.448;7.904;2022-07-23T00:11:17;98131.47;;;20.37;69.29
46392;BME280;32098;49.448;7.904;2022-07-23T00:13:44;98135.44;;;20.44;69.21
46392;BME280;32098;49.448;7.904;2022-07-23T00:16:11;98128.81;;;20.50;68.51
46392;BME280;32098;49.448;7.904;2022-07-23T00:18:37;98134.31;;;20.45;68.32
46392;BME280;32098;49.448;7.904;2022-07-23T00:21:04;98143.19;;;20.51;68.61
46392;BME280;32098;49.448;7.904;2022-07-23T00:23:30;98140.25;;;20.47;68.83
46392;BME280;32098;49.448;7.904;2022-07-23T00:25:57;98135.44;;;20.44;68.97
46392;BME280;32098;49.448;7.904;2022-07-23T00:28:24;98144.28;;;20.50;68.00
46392;BME280;32098;49.448;7.904;2022-07-23T00:30:52;98136.50;;;20.06;68.91
46392;BME280;32098;49.448;7.904;2022-07-23T00:33:19;98152.53;;;19.84;69.80
46392;BME280;32098;49.448;7.904;2022-07-23T00:35:46;98168.13;;;19.73;70.84
46392;BME280;32098;49.448;7.904;2022-07-23T00:38:12;98160.03;;;19.92;69.58
46392;BME280;32098;49.448;7.904;2022-07-23T00:40:39;98147.13;;;19.60;71.38
46392;BME280;32098;49.448;7.904;2022-07-23T00:43:06;98153.63;;;19.35;72.51
46392;BME280;32098;49.448;7.904;2022-07-23T00:45:33;98139.50;;;19.15;73.26
46392;BME280;32098;49.448;7.904;2022-07-23T00:48:00;98140.84;;;19.17;72.49
46392;BME280;32098;49.448;7.904;2022-07-23T00:50:27;98148.72;;;19.38;71.72
46392;BME280;32098;49.448;7.904;2022-07-23T00:52:55;98143.25;;;19.43;71.64
46392;BME280;32098;49.448;7.904;2022-07-23T00:55:21;98132.66;;;19.46;72.06
46392;BME280;32098;49.448;7.904;2022-07-23T00:57:49;98131.66;;;19.61;71.92
46392;BME280;32098;49.448;7.904;2022-07-23T01:00:16;98129.88;;;19.75;71.38
46392;BME280;32098;49.448;7.904;2022-07-23T01:02:43;98108.59;;;19.87;70.82
46392;BME280;32098;49.448;7.904;2022-07-23T01:05:10;98116.66;;;19.92;70.75
46392;BME280;32098;49.448;7.904;2022-07-23T01:07:37;98122.16;;;19.87;70.83
46392;BME280;32098;49.448;7.904;2022-07-23T01:10:05;98122.09;;;19.92;70.48
46392;BME280;32098;49.448;7.904;2022-07-23T01:12:52;98120.47;;;19.91;70.36
46392;BME280;32098;49.448;7.904;2022-07-23T01:15:18;98143.63;;;20.02;69.79
46392;BME280;32098;49.448;7.904;2022-07-23T01:17:45;98172.19;;;20.13;69.24
46392;BME280;32098;49.448;7.904;2022-07-23T01:20:11;98202.47;;;20.02;69.28
46392;BME280;32098;49.448;7.904;2022-07-23T01:22:38;98198.75;;;20.16;68.04
46392;BME280;32098;49.448;7.904;2022-07-23T01:25:05;98187.06;;;20.16;66.11
46392;BME280;32098;49.448;7.904;2022-07-23T01:27:33;98173.25;;;20.17;65.12
46392;BME280;32098;49.448;7.904;2022-07-23T01:30:03;98180.69;;;20.25;64.24
46392;BME280;32098;49.448;7.904;2022-07-23T01:32:30;98175.16;;;20.17;65.20
46392;BME280;32098;49.448;7.904;2022-07-23T01:34:56;98168.84;;;20.21;65.36
46392;BME280;32098;49.448;7.904;2022-07-23T01:37:23;98153.28;;;20.08;65.29
46392;BME280;32098;49.448;7.904;2022-07-23T01:39:49;98148.81;;;19.98;65.59
46392;BME280;32098;49.448;7.904;2022-07-23T01:42:17;98143.63;;;20.02;65.37
46392;BME280;32098;49.448;7.904;2022-07-23T01:44:45;98116.81;;;19.82;65.38
46392;BME280;32098;49.448;7.904;2022-07-23T01:47:17;98116.94;;;19.72;66.00
46392;BME280;32098;49.448;7.904;2022-07-23T01:49:45;98118.41;;;19.83;65.78
46392;BME280;32098;49.448;7.904;2022-07-23T01:55:42;98123.00;;;19.82;66.41
46392;BME280;32098;49.448;7.904;2022-07-23T01:58:09;98105.88;;;19.68;66.51
46392;BME280;32098;49.448;7.904;2022-07-23T02:00:36;98116.81;;;19.82;65.98
46392;BME280;32098;49.448;7.904;2022-07-23T02:03:03;98120.72;;;19.71;67.06
46392;BME280;32098;49.448;7.904;2022-07-23T02:05:30;98083.28;;;19.54;67.43
46392;BME280;32098;49.448;7.904;2022-07-23T02:07:59;98100.16;;;19.70;67.41
46392;BME280;32098;49.448;7.904;2022-07-23T02:10:26;98103.59;;;19.75;66.98
46392;BME280;32098;49.448;7.904;2022-07-23T02:12:53;98091.00;;;19.66;66.75
46392;BME280;32098;49.448;7.904;2022-07-23T02:15:20;98094.66;;;19.75;66.49
46392;BME280;32098;49.448;7.904;2022-07-23T02:17:47;98092.31;;;19.68;67.02
46392;BME280;32098;49.448;7.904;2022-07-23T02:20:14;98094.81;;;19.60;67.34
46392;BME280;32098;49.448;7.904;2022-07-23T02:22:42;98094.56;;;19.61;67.48
46392;BME280;32098;49.448;7.904;2022-07-23T02:25:09;98088.31;;;19.61;66.05
46392;BME280;32098;49.448;7.904;2022-07-23T02:27:36;98102.06;;;19.69;65.92
46392;BME280;32098;49.448;7.904;2022-07-23T02:30:05;98111.53;;;19.72;66.26
46392;BME280;32098;49.448;7.904;2022-07-23T02:32:33;98082.91;;;19.61;65.75
46392;BME280;32098;49.448;7.904;2022-07-23T02:35:00;98121.47;;;19.76;65.35
46392;BME280;32098;49.448;7.904;2022-07-23T02:37:26;98141.84;;;19.74;64.54
46392;BME280;32098;49.448;7.904;2022-07-23T02:39:53;98143.44;;;19.75;64.28
46392;BME280;32098;49.448;7.904;2022-07-23T02:42:20;98148.63;;;19.48;65.08
46392;BME280;32098;49.448;7.904;2022-07-23T02:44:47;98148.63;;;19.48;65.04
46392;BME280;32098;49.448;7.904;2022-07-23T02:47:14;98165.69;;;19.48;65.04
46392;BME280;32098;49.448;7.904;2022-07-23T02:49:40;98178.72;;;19.46;65.18
46392;BME280;32098;49.448;7.904;2022-07-23T02:52:07;98169.25;;;19.44;65.18
46392;BME280;32098;49.448;7.904;2022-07-23T02:54:34;98162.41;;;19.51;64.83
46392;BME280;32098;49.448;7.904;2022-07-23T02:57:02;98129.72;;;19.19;65.37
46392;BME280;32098;49.448;7.904;2022-07-23T02:59:29;98155.72;;;19.44;65.31
46392;BME280;32098;49.448;7.904;2022-07-23T03:01:56;98159.44;;;19.48;65.41
46392;BME280;32098;49.448;7.904;2022-07-23T03:04:22;98154.56;;;19.50;65.28
46392;BME280;32098;49.448;7.904;2022-07-23T03:06:49;98168.22;;;19.40;65.62
46392;BME280;32098;49.448;7.904;2022-07-23T03:09:15;98159.13;;;19.30;66.68
46392;BME280;32098;49.448;7.904;2022-07-23T03:11:42;98162.78;;;19.40;66.95
46392;BME280;32098;49.448;7.904;2022-07-23T03:14:09;98141.22;;;19.34;67.56
46392;BME280;32098;49.448;7.904;2022-07-23T03:16:35;98142.88;;;19.30;67.81
46392;BME280;32098;49.448;7.904;2022-07-23T03:19:02;98133.53;;;19.18;68.18
46392;BME280;32098;49.448;7.904;2022-07-23T03:21:32;98107.91;;;18.82;69.53
46392;BME280;32098;49.448;7.904;2022-07-23T03:23:58;98123.84;;;18.83;69.88
46392;BME280;32098;49.448;7.904;2022-07-23T03:26:25;98127.97;;;18.76;70.28
46392;BME280;32098;49.448;7.904;2022-07-23T03:28:52;98122.41;;;18.62;71.74
46392;BME280;32098;49.448;7.904;2022-07-23T03:31:18;98123.47;;;18.27;73.17
46392;BME280;32098;49.448;7.904;2022-07-23T03:33:46;98141.66;;;18.22;73.97
46392;BME280;32098;49.448;7.904;2022-07-23T03:36:13;98140.69;;;18.41;73.73
46392;BME280;32098;49.448;7.904;2022-07-23T03:38:43;98134.16;;;18.47;73.66
46392;BME280;32098;49.448;7.904;2022-07-23T03:41:10;98147.56;;;18.29;73.77
46392;BME280;32098;49.448;7.904;2022-07-23T03:43:36;98142.00;;;18.49;73.38
46392;BME280;32098;49.448;7.904;2022-07-23T03:46:03;98145.66;;;18.63;72.65
46392;BME280;32098;49.448;7.904;2022-07-23T03:48:30;98176.72;;;18.70;72.63
46392;BME280;32098;49.448;7.904;2022-07-23T03:50:58;98171.81;;;18.72;72.21
46392;BME280;32098;49.448;7.904;2022-07-23T03:53:24;98181.25;;;18.75;71.85
46392;BME280;32098;49.448;7.904;2022-07-23T03:55:51;98189.13;;;18.77;71.91
46392;BME280;32098;49.448;7.904;2022-07-23T03:58:17;98187.44;;;18.81;71.50
46392;BME280;32098;49.448;7.904;2022-07-23T04:00:44;98192.94;;;18.70;71.84
46392;BME280;32098;49.448;7.904;2022-07-23T04:03:10;98198.59;;;18.74;72.26
46392;BME280;32098;49.448;7.904;2022-07-23T04:05:37;98186.75;;;18.65;71.92
46392;BME280;32098;49.448;7.904;2022-07-23T04:08:06;98186.09;;;18.49;72.20
46392;BME280;32098;49.448;7.904;2022-07-23T04:10:34;98158.22;;;18.49;72.46
46392;BME280;32098;49.448;7.904;2022-07-23T04:13:02;98160.97;;;18.44;72.03
46392;BME280;32098;49.448;7.904;2022-07-23T04:15:29;98169.72;;;18.31;74.77
46392;BME280;32098;49.448;7.904;2022-07-23T04:17:56;98169.38;;;18.37;74.01
46392;BME280;32098;49.448;7.904;2022-07-23T04:20:30;98176.22;;;18.25;74.53
46392;BME280;32098;49.448;7.904;2022-07-23T04:23:00;98184.22;;;18.40;74.39
46392;BME280;32098;49.448;7.904;2022-07-23T04:25:27;98193.94;;;18.46;74.10
46392;BME280;32098;49.448;7.904;2022-07-23T04:27:54;98208.03;;;18.43;74.88
46392;BME280;32098;49.448;7.904;2022-07-23T04:30:21;98224.56;;;18.36;75.38
46392;BME280;32098;49.448;7.904;2022-07-23T04:32:48;98229.72;;;18.33;75.75
46392;BME280;32098;49.448;7.904;2022-07-23T04:35:20;98235.13;;;18.33;75.27
46392;BME280;32098;49.448;7.904;2022-07-23T04:37:50;98250.25;;;18.39;74.34
46392;BME280;32098;49.448;7.904;2022-07-23T04:40:17;98259.38;;;18.48;73.82
46392;BME280;32098;49.448;7.904;2022-07-23T04:42:44;98255.59;;;18.49;74.42
46392;BME280;32098;49.448;7.904;2022-07-23T04:45:11;98265.09;;;18.41;74.06
46392;BME280;32098;49.448;7.904;2022-07-23T04:47:40;98263.72;;;18.44;74.04
46392;BME280;32098;49.448;7.904;2022-07-23T04:50:06;98247.00;;;18.37;74.79
46392;BME280;32098;49.448;7.904;2022-07-23T04:52:35;98247.47;;;18.49;73.72
46392;BME280;32098;49.448;7.904;2022-07-23T04:55:02;98243.81;;;18.25;74.67
46392;BME280;32098;49.448;7.904;2022-07-23T04:57:29;98248.72;;;18.18;75.46
46392;BME280;32098;49.448;7.904;2022-07-23T04:59:55;98246.59;;;18.09;75.57
46392;BME280;32098;49.448;7.904;2022-07-23T05:02:24;98240.16;;;17.90;77.04
46392;BME280;32098;49.448;7.904;2022-07-23T05:04:50;98249.38;;;17.74;77.78
46392;BME280;32098;49.448;7.904;2022-07-23T05:07:17;98245.38;;;17.67;77.93
46392;BME280;32098;49.448;7.904;2022-07-23T05:09:43;98249.91;;;17.91;77.63
46392;BME280;32098;49.448;7.904;2022-07-23T05:12:10;98245.22;;;18.12;77.07
46392;BME280;32098;49.448;7.904;2022-07-23T05:14:37;98225.78;;;18.10;76.26
46392;BME280;32098;49.448;7.904;2022-07-23T05:17:03;98244.38;;;18.22;76.17
46392;BME280;32098;49.448;7.904;2022-07-23T05:19:30;98255.00;;;17.98;76.96
46392;BME280;32098;49.448;7.904;2022-07-23T05:21:57;98252.88;;;17.85;78.00
46392;BME280;32098;49.448;7.904;2022-07-23T05:24:24;98249.31;;;17.94;77.39
46392;BME280;32098;49.448;7.904;2022-07-23T05:26:51;98263.66;;;17.95;77.65
46392;BME280;32098;49.448;7.904;2022-07-23T05:29:18;98249.88;;;18.06;77.49
46392;BME280;32098;49.448;7.904;2022-07-23T05:31:45;98253.63;;;18.11;76.67
46392;BME280;32098;49.448;7.904;2022-07-23T05:34:12;98258.97;;;18.26;75.53
46392;BME280;32098;49.448;7.904;2022-07-23T05:36:43;98251.56;;;18.41;75.56
46392;BME280;32098;49.448;7.904;2022-07-23T05:39:10;98260.91;;;18.64;76.10
46392;BME280;32098;49.448;7.904;2022-07-23T05:41:36;98272.16;;;19.15;75.34
46392;BME280;32098;49.448;7.904;2022-07-23T05:44:03;98257.56;;;19.73;73.00
46392;BME280;32098;49.448;7.904;2022-07-23T05:46:31;98266.34;;;20.31;70.62
46392;BME280;32098;49.448;7.904;2022-07-23T05:49:03;98266.75;;;20.81;67.65
46392;BME280;32098;49.448;7.904;2022-07-23T05:52:03;98275.91;;;21.22;65.68
46392;BME280;32098;49.448;7.904;2022-07-23T05:54:46;98272.38;;;21.35;64.43
46392;BME280;32098;49.448;7.904;2022-07-23T05:57:13;98265.78;;;21.41;64.71
46392;BME280;32098;49.448;7.904;2022-07-23T05:59:39;98267.91;;;21.44;64.62
46392;BME280;32098;49.448;7.904;2022-07-23T06:02:06;98281.66;;;21.34;64.75
46392;BME280;32098;49.448;7.904;2022-07-23T06:04:33;98289.56;;;21.17;65.81
46392;BME280;32098;49.448;7.904;2022-07-23T06:07:20;98290.22;;;21.09;65.42
46392;BME280;32098;49.448;7.904;2022-07-23T06:09:47;98290.00;;;20.87;65.60
46392;BME280;32098;49.448;7.904;2022-07-23T06:12:16;98310.47;;;20.79;65.77
46392;BME280;32098;49.448;7.904;2022-07-23T06:14:44;98303.44;;;20.59;66.70
46392;BME280;32098;49.448;7.904;2022-07-23T06:17:10;98310.59;;;20.50;66.84
46392;BME280;32098;49.448;7.904;2022-07-23T06:19:37;98322.03;;;20.47;66.94
46392;BME280;32098;49.448;7.904;2022-07-23T06:22:04;98303.09;;;20.42;67.59
46392;BME280;32098;49.448;7.904;2022-07-23T06:24:30;98314.47;;;20.21;68.69
46392;BME280;32098;49.448;7.904;2022-07-23T06:26:57;98312.06;;;20.19;69.05
46392;BME280;32098;49.448;7.904;2022-07-23T06:29:23;98299.13;;;20.11;69.26
46392;BME280;32098;49.448;7.904;2022-07-23T06:31:50;98289.31;;;20.15;69.26
46392;BME280;32098;49.448;7.904;2022-07-23T06:34:17;98288.97;;;19.98;69.02
46392;BME280;32098;49.448;7.904;2022-07-23T06:36:43;98293.94;;;19.91;70.01
46392;BME280;32098;49.448;7.904;2022-07-23T06:39:11;98294.47;;;19.93;71.21
46392;BME280;32098;49.448;7.904;2022-07-23T06:41:43;98300.63;;;19.98;70.60
46392;BME280;32098;49.448;7.904;2022-07-23T06:44:16;98302.47;;;20.03;70.48
46392;BME280;32098;49.448;7.904;2022-07-23T06:46:46;98296.84;;;20.00;69.13
46392;BME280;32098;49.448;7.904;2022-07-23T06:49:13;98301.91;;;20.06;69.31
46392;BME280;32098;49.448;7.904;2022-07-23T06:51:39;98301.53;;;20.13;70.76
46392;BME280;32098;49.448;7.904;2022-07-23T06:54:06;98300.84;;;20.26;70.85
46392;BME280;32098;49.448;7.904;2022-07-23T06:56:33;98293.47;;;20.31;70.21
46392;BME280;32098;49.448;7.904;2022-07-23T06:58:59;98296.38;;;20.16;70.36
46392;BME280;32098;49.448;7.904;2022-07-23T07:01:26;98307.03;;;20.31;70.43
46392;BME280;32098;49.448;7.904;2022-07-23T07:03:53;98315.81;;;20.66;69.02
46392;BME280;32098;49.448;7.904;2022-07-23T07:06:20;98314.94;;;20.89;68.22
46392;BME280;32098;49.448;7.904;2022-07-23T07:08:46;98311.06;;;21.13;66.67
46392;BME280;32098;49.448;7.904;2022-07-23T07:11:13;98309.72;;;21.30;66.25
46392;BME280;32098;49.448;7.904;2022-07-23T07:13:39;98327.75;;;21.39;65.37
46392;BME280;32098;49.448;7.904;2022-07-23T07:16:06;98321.81;;;21.37;65.67
46392;BME280;32098;49.448;7.904;2022-07-23T07:18:32;98326.47;;;21.50;64.76
46392;BME280;32098;49.448;7.904;2022-07-23T07:20:59;98325.47;;;21.46;63.93
46392;BME280;32098;49.448;7.904;2022-07-23T07:23:25;98332.03;;;21.59;64.51
46392;BME280;32098;49.448;7.904;2022-07-23T07:25:52;98331.97;;;21.64;63.96
46392;BME280;32098;49.448;7.904;2022-07-23T07:28:19;98331.03;;;21.87;62.84
46392;BME280;32098;49.448;7.904;2022-07-23T07:30:45;98333.16;;;22.04;62.43
46392;BME280;32098;49.448;7.904;2022-07-23T07:33:12;98341.91;;;22.01;62.01
46392;BME280;32098;49.448;7.904;2022-07-23T07:35:38;98348.78;;;22.12;62.28
46392;BME280;32098;49.448;7.904;2022-07-23T07:38:05;98352.41;;;22.21;61.08
46392;BME280;32098;49.448;7.904;2022-07-23T07:40:31;98347.16;;;22.38;61.09
46392;BME280;32098;49.448;7.904;2022-07-23T07:43:00;98340.31;;;22.00;60.89
46392;BME280;32098;49.448;7.904;2022-07-23T07:45:28;98352.69;;;21.60;61.57
46392;BME280;32098;49.448;7.904;2022-07-23T07:47:54;98354.50;;;21.64;63.24
46392;BME280;32098;49.448;7.904;2022-07-23T07:50:21;98354.59;;;21.92;62.57
46392;BME280;32098;49.448;7.904;2022-07-23T07:52:49;98362.06;;;22.13;61.98
46392;BME280;32098;49.448;7.904;2022-07-23T07:55:15;98368.94;;;22.38;60.90
46392;BME280;32098;49.448;7.904;2022-07-23T07:57:43;98362.50;;;22.34;59.14
46392;BME280;32098;49.448;7.904;2022-07-23T08:00:15;98356.66;;;22.27;60.69
46392;BME280;32098;49.448;7.904;2022-07-23T08:02:52;98362.81;;;22.46;60.07
46392;BME280;32098;49.448;7.904;2022-07-23T08:05:27;98368.25;;;22.46;58.47
46392;BME280;32098;49.448;7.904;2022-07-23T08:07:55;98367.13;;;22.20;60.11
46392;BME280;32098;49.448;7.904;2022-07-23T08:10:22;98375.19;;;22.25;59.44
46392;BME280;32098;49.448;7.904;2022-07-23T08:12:52;98380.13;;;22.36;59.13
46392;BME280;32098;49.448;7.904;2022-07-23T08:15:22;98379.53;;;22.80;59.60
46392;BME280;32098;49.448;7.904;2022-07-23T08:17:49;98370.47;;;23.21;57.33
46392;BME280;32098;49.448;7.904;2022-07-23T08:20:18;98368.75;;;23.47;55.93
46392;BME280;32098;49.448;7.904;2022-07-23T08:22:54;98369.31;;;23.80;55.17
46392;BME280;32098;49.448;7.904;2022-07-23T08:25:23;98368.25;;;23.67;54.57
46392;BME280;32098;49.448;7.904;2022-07-23T08:27:51;98366.13;;;23.64;55.24
46392;BME280;32098;49.448;7.904;2022-07-23T08:30:18;98368.88;;;23.64;55.85
46392;BME280;32098;49.448;7.904;2022-07-23T08:32:57;98368.53;;;24.18;55.26
46392;BME280;32098;49.448;7.904;2022-07-23T08:35:35;98375.44;;;24.47;55.27
46392;BME280;32098;49.448;7.904;2022-07-23T08:38:04;98371.69;;;24.03;54.04
46392;BME280;32098;49.448;7.904;2022-07-23T08:40:33;98369.09;;;23.98;53.95
46392;BME280;32098;49.448;7.904;2022-07-23T08:43:08;98368.53;;;24.18;53.88
46392;BME280;32098;49.448;7.904;2022-07-23T08:45:37;98371.84;;;24.38;52.86
46392;BME280;32098;49.448;7.904;2022-07-23T08:48:07;98367.47;;;24.67;52.38
46392;BME280;32098;49.448;7.904;2022-07-23T08:50:36;98368.03;;;25.29;51.43
46392;BME280;32098;49.448;7.904;2022-07-23T08:53:06;98372.34;;;25.82;50.37
46392;BME280;32098;49.448;7.904;2022-07-23T08:55:33;98372.38;;;25.73;49.95
46392;BME280;32098;49.448;7.904;2022-07-23T08:58:00;98367.97;;;25.98;50.17
46392;BME280;32098;49.448;7.904;2022-07-23T09:00:27;98354.06;;;26.20;49.03
46392;BME280;32098;49.448;7.904;2022-07-23T09:02:54;98370.34;;;26.08;48.91
46392;BME280;32098;49.448;7.904;2022-07-23T09:05:21;98369.13;;;25.88;49.43
46392;BME280;32098;49.448;7.904;2022-07-23T09:10:49;98368.13;;;24.98;50.58
46392;BME280;32098;49.448;7.904;2022-07-23T09:16:19;98371.91;;;25.45;50.10
46392;BME280;32098;49.448;7.904;2022-07-23T09:18:53;98367.50;;;25.87;48.86
46392;BME280;32098;49.448;7.904;2022-07-23T09:21:23;98367.09;;;26.23;47.58
46392;BME280;32098;49.448;7.904;2022-07-23T09:36:39;98360.63;;;27.36;45.44
46392;BME280;32098;49.448;7.904;2022-07-23T09:39:07;98354.81;;;27.70;44.71
46392;BME280;32098;49.448;7.904;2022-07-23T09:44:10;98353.78;;;28.32;43.10
46392;BME280;32098;49.448;7.904;2022-07-23T09:46:37;98356.91;;;28.42;42.93
46392;BME280;32098;49.448;7.904;2022-07-23T09:49:11;98358.41;;;28.52;41.72
46392;BME280;32098;49.448;7.904;2022-07-23T09:51:47;98353.94;;;28.47;42.65
46392;BME280;32098;49.448;7.904;2022-07-23T09:54:25;98355.91;;;28.71;41.38
46392;BME280;32098;49.448;7.904;2022-07-23T09:56:53;98348.56;;;28.63;40.83
46392;BME280;32098;49.448;7.904;2022-07-23T09:59:23;98356.78;;;28.75;40.81
46392;BME280;32098;49.448;7.904;2022-07-23T10:01:53;98354.03;;;28.75;41.05
46392;BME280;32098;49.448;7.904;2022-07-23T10:04:21;98354.06;;;28.51;40.51
46392;BME280;32098;49.448;7.904;2022-07-23T10:07:22;98359.75;;;28.22;41.59
46392;BME280;32098;49.448;7.904;2022-07-23T10:10:11;98354.97;;;28.43;42.51
46392;BME280;32098;49.448;7.904;2022-07-23T10:12:58;98349.56;;;27.77;42.27
46392;BME280;32098;49.448;7.904;2022-07-23T10:15:50;98354.00;;;26.96;44.66
46392;BME280;32098;49.448;7.904;2022-07-23T10:18:17;98352.31;;;26.82;44.84
46392;BME280;32098;49.448;7.904;2022-07-23T10:20:43;98353.03;;;27.33;43.22
46392;BME280;32098;49.448;7.904;2022-07-23T10:23:24;98344.94;;;27.57;43.24
46392;BME280;32098;49.448;7.904;2022-07-23T10:26:06;98349.41;;;27.62;43.09
46392;BME280;32098;49.448;7.904;2022-07-23T10:29:00;98347.00;;;27.93;42.09
46392;BME280;32098;49.448;7.904;2022-07-23T10:31:38;98344.63;;;28.40;42.30
46392;BME280;32098;49.448;7.904;2022-07-23T10:37:28;98344.22;;;28.50;39.98
46392;BME280;32098;49.448;7.904;2022-07-23T10:40:13;98341.94;;;28.64;40.68
46392;BME280;32098;49.448;7.904;2022-07-23T10:42:41;98342.59;;;28.73;40.11
46392;BME280;32098;49.448;7.904;2022-07-23T10:45:32;98341.22;;;28.43;39.90
46392;BME280;32098;49.448;7.904;2022-07-23T10:48:14;98341.66;;;28.21;40.57
46392;BME280;32098;49.448;7.904;2022-07-23T10:50:42;98342.56;;;28.13;41.57
46392;BME280;32098;49.448;7.904;2022-07-23T10:53:12;98344.28;;;27.72;41.92
46392;BME280;32098;49.448;7.904;2022-07-23T10:55:43;98332.22;;;27.53;41.92
46392;BME280;32098;49.448;7.904;2022-07-23T10:58:10;98347.25;;;27.67;41.29
46392;BME280;32098;49.448;7.904;2022-07-23T11:00:37;98354.34;;;27.68;41.33
46392;BME280;32098;49.448;7.904;2022-07-23T11:03:34;98350.41;;;27.57;41.55
46392;BME280;32098;49.448;7.904;2022-07-23T11:06:05;98342.66;;;27.59;41.36
46392;BME280;32098;49.448;7.904;2022-07-23T11:08:31;98339.56;;;27.93;41.17
46392;BME280;32098;49.448;7.904;2022-07-23T11:13:29;98345.22;;;28.33;39.85
46392;BME280;32098;49.448;7.904;2022-07-23T11:32:21;98337.78;;;28.34;39.45
46392;BME280;32098;49.448;7.904;2022-07-23T11:34:50;98336.06;;;28.41;39.16
46392;BME280;32098;49.448;7.904;2022-07-23T11:40:00;98330.47;;;28.38;39.86
46392;BME280;32098;49.448;7.904;2022-07-23T11:42:28;98324.88;;;27.24;42.94
46392;BME280;32098;49.448;7.904;2022-07-23T11:44:57;98316.31;;;27.25;42.58
46392;BME280;32098;49.448;7.904;2022-07-23T11:47:26;98307.59;;;26.91;42.79
46392;BME280;32098;49.448;7.904;2022-07-23T11:49:59;98289.88;;;26.88;40.58
46392;BME280;32098;49.448;7.904;2022-07-23T11:52:27;98329.94;;;27.34;40.85
46392;BME280;32098;49.448;7.904;2022-07-23T11:55:20;98318.91;;;27.63;41.03
46392;BME280;32098;49.448;7.904;2022-07-23T11:57:47;98317.72;;;27.97;39.18
46392;BME280;32098;49.448;7.904;2022-07-23T12:00:25;98296.78;;;28.17;38.81
46392;BME280;32098;49.448;7.904;2022-07-23T12:02:57;98315.69;;;28.42;39.91
46392;BME280;32098;49.448;7.904;2022-07-23T12:05:36;98229.28;;;28.16;39.79
46392;BME280;32098;49.448;7.904;2022-07-23T12:08:05;98297.03;;;28.60;40.21
46392;BME280;32098;49.448;7.904;2022-07-23T12:10:40;98272.44;;;28.51;39.57
46392;BME280;32098;49.448;7.904;2022-07-23T12:13:12;98310.97;;;28.06;39.73
46392;BME280;32098;49.448;7.904;2022-07-23T12:15:42;98314.56;;;27.74;40.94
46392;BME280;32098;49.448;7.904;2022-07-23T12:18:11;98313.09;;;27.44;41.04
46392;BME280;32098;49.448;7.904;2022-07-23T12:20:41;98269.78;;;26.75;42.24
46392;BME280;32098;49.448;7.904;2022-07-23T12:23:10;98310.53;;;26.77;42.16
46392;BME280;32098;49.448;7.904;2022-07-23T12:25:44;98312.47;;;26.76;41.65
46392;BME280;32098;49.448;7.904;2022-07-23T12:28:18;98305.38;;;27.05;41.19
46392;BME280;32098;49.448;7.904;2022-07-23T12:30:53;98281.19;;;27.19;41.19
46392;BME280;32098;49.448;7.904;2022-07-23T12:35:54;98305.72;;;28.01;40.50
46392;BME280;32098;49.448;7.904;2022-07-23T12:38:23;98293.03;;;28.21;38.98
46392;BME280;32098;49.448;7.904;2022-07-23T12:40:58;98306.97;;;28.40;38.80
46392;BME280;32098;49.448;7.904;2022-07-23T12:43:29;98311.16;;;28.46;39.08
46392;BME280;32098;49.448;7.904;2022-07-23T12:46:05;98307.34;;;28.39;37.97
46392;BME280;32098;49.448;7.904;2022-07-23T12:48:37;98312.25;;;27.64;39.97
46392;BME280;32098;49.448;7.904;2022-07-23T12:51:06;98312.44;;;27.47;40.31
46392;BME280;32098;49.448;7.904;2022-07-23T12:53:42;98303.97;;;27.52;40.81
46392;BME280;32098;49.448;7.904;2022-07-23T12:56:17;98319.34;;;27.65;40.54
46392;BME280;32098;49.448;7.904;2022-07-23T12:58:57;98325.44;;;27.83;39.88
46392;BME280;32098;49.448;7.904;2022-07-23T13:01:26;98317.66;;;27.85;39.05
46392;BME280;32098;49.448;7.904;2022-07-23T13:04:08;98322.66;;;28.03;39.19
46392;BME280;32098;49.448;7.904;2022-07-23T13:06:42;98314.53;;;28.07;39.07
46392;BME280;32098;49.448;7.904;2022-07-23T13:09:13;98311.91;;;28.11;38.73
46392;BME280;32098;49.448;7.904;2022-07-23T13:11:41;98316.25;;;28.12;38.90
46392;BME280;32098;49.448;7.904;2022-07-23T13:14:08;98259.16;;;27.93;38.97
46392;BME280;32098;49.448;7.904;2022-07-23T13:16:35;98310.06;;;28.15;37.45
46392;BME280;32098;49.448;7.904;2022-07-23T13:19:04;98300.22;;;28.01;37.49
46392;BME280;32098;49.448;7.904;2022-07-23T13:21:38;98320.81;;;28.07;37.24
46392;BME280;32098;49.448;7.904;2022-07-23T13:24:06;98318.53;;;28.09;38.34
46392;BME280;32098;49.448;7.904;2022-07-23T13:26:35;98319.78;;;28.12;36.80
46392;BME280;32098;49.448;7.904;2022-07-23T13:29:03;98318.31;;;28.15;37.20
46392;BME280;32098;49.448;7.904;2022-07-23T13:31:36;98306.63;;;28.05;37.73
46392;BME280;32098;49.448;7.904;2022-07-23T13:34:04;98317.41;;;28.11;37.68
46392;BME280;32098;49.448;7.904;2022-07-23T13:36:31;98306.88;;;28.13;37.69
46392;BME280;32098;49.448;7.904;2022-07-23T13:38:57;98305.25;;;27.99;38.29
46392;BME280;32098;49.448;7.904;2022-07-23T13:41:25;98304.34;;;28.20;39.02
46392;BME280;32098;49.448;7.904;2022-07-23T13:43:52;98305.16;;;28.32;38.25
46392;BME280;32098;49.448;7.904;2022-07-23T13:46:19;98305.97;;;28.33;38.23
46392;BME280;32098;49.448;7.904;2022-07-23T13:48:46;98303.09;;;28.41;37.98
46392;BME280;32098;49.448;7.904;2022-07-23T13:51:13;98303.44;;;28.28;37.85
46392;BME280;32098;49.448;7.904;2022-07-23T13:53:40;98301.81;;;27.90;38.46
46392;BME280;32098;49.448;7.904;2022-07-23T13:56:06;98299.88;;;28.03;38.81
46392;BME280;32098;49.448;7.904;2022-07-23T13:58:33;98308.41;;;27.89;38.78
46392;BME280;32098;49.448;7.904;2022-07-23T14:00:59;98303.28;;;27.88;38.70
46392;BME280;32098;49.448;7.904;2022-07-23T14:03:26;98305.91;;;27.52;39.51